createdAt,value
2018-01-07T00:00:10.307Z,9.73
2018-01-07T00:02:37.739Z,7.80
2018-01-07T00:05:05.163Z,9.75
2018-01-07T00:07:33.359Z,9.40
2018-01-07T00:10:01.014Z,8.20
2018-01-07T00:12:29.195Z,9.35
2018-01-07T00:14:56.619Z,8.68
2018-01-07T00:17:24.051Z,9.00
2018-01-07T00:19:51.463Z,8.57
2018-01-07T00:22:18.902Z,9.68
2018-01-07T00:24:47.080Z,8.60
2018-01-07T00:27:14.503Z,8.90
2018-01-07T00:29:41.921Z,8.00
2018-01-07T00:32:09.351Z,8.73
2018-01-07T00:34:36.767Z,8.70
2018-01-07T00:37:04.204Z,8.80
2018-01-07T00:39:31.623Z,8.40
2018-01-07T00:41:59.051Z,8.90
2018-01-07T00:44:26.467Z,8.73
2018-01-07T00:46:53.910Z,8.63
2018-01-07T00:49:21.327Z,8.73
2018-01-07T00:51:48.746Z,7.30
2018-01-07T00:54:16.181Z,7.47
2018-01-07T00:56:43.595Z,7.50
2018-01-07T00:59:11.795Z,9.10
2018-01-07T01:01:39.224Z,6.87
2018-01-07T01:04:06.656Z,8.23
2018-01-07T01:06:34.183Z,7.50
2018-01-07T01:09:01.616Z,7.50
2018-01-07T01:11:29.039Z,8.15
2018-01-07T01:13:56.467Z,7.67
2018-01-07T01:16:23.879Z,7.33
2018-01-07T01:18:51.314Z,6.57
2018-01-07T01:21:19.507Z,7.90
2018-01-07T01:26:14.004Z,7.72
2018-01-07T01:28:41.427Z,6.10
2018-01-07T01:31:08.848Z,6.50
2018-01-07T01:33:36.288Z,7.40
2018-01-07T01:36:03.705Z,6.60
2018-01-07T01:38:31.128Z,6.85
2018-01-07T01:40:58.566Z,6.55
2018-01-07T01:43:25.980Z,5.90
2018-01-07T01:45:53.423Z,6.27
2018-01-07T01:48:20.848Z,6.70
2018-01-07T01:50:48.285Z,6.03
2018-01-07T01:53:15.703Z,6.60
2018-01-07T01:55:56.411Z,5.93
2018-01-07T01:58:23.843Z,5.05
2018-01-07T02:00:51.267Z,6.20
2018-01-07T02:03:19.455Z,4.93
2018-01-07T02:05:46.879Z,5.70
2018-01-07T02:08:14.311Z,5.32
2018-01-07T02:10:41.734Z,5.45
2018-01-07T02:13:09.163Z,7.00
2018-01-07T02:15:37.395Z,5.40
2018-01-07T02:18:04.816Z,6.03
2018-01-07T02:20:32.256Z,5.50
2018-01-07T02:22:59.760Z,5.60
2018-01-07T02:27:54.263Z,5.20
2018-01-07T03:12:01.115Z,4.62
2018-01-07T03:14:28.539Z,5.40
2018-01-07T04:03:30.205Z,4.57
2018-01-07T04:05:57.644Z,5.55
2018-01-07T04:08:25.227Z,5.72
2018-01-07T04:10:52.663Z,5.20
2018-01-07T04:13:20.088Z,5.53
2018-01-07T04:15:48.287Z,5.00
2018-01-07T04:18:15.711Z,4.75
2018-01-07T04:20:43.143Z,5.97
2018-01-07T04:23:10.572Z,6.62
2018-01-07T04:25:38.008Z,5.60
2018-01-07T04:28:05.431Z,6.75
2018-01-07T04:30:33.635Z,9.45
2018-01-07T04:33:01.063Z,11.25
2018-01-07T04:35:28.499Z,12.00
2018-01-07T04:37:55.931Z,11.40
2018-01-07T04:40:23.363Z,9.70
2018-01-07T04:42:50.788Z,9.00
2018-01-07T04:45:18.984Z,6.03
2018-01-07T04:47:46.403Z,6.47
2018-01-07T04:50:13.836Z,5.57
2018-01-07T04:52:41.260Z,5.22
2018-01-07T04:55:08.691Z,5.00
2018-01-07T04:57:36.880Z,4.93
2018-01-07T05:00:04.311Z,5.22
2018-01-07T05:02:31.727Z,4.80
2018-01-07T05:04:59.151Z,4.45
2018-01-07T05:07:26.584Z,5.45
2018-01-07T05:09:54.772Z,4.70
2018-01-07T05:12:22.207Z,5.37
2018-01-07T05:14:49.627Z,5.10
2018-01-07T05:17:17.059Z,4.80
2018-01-07T05:19:44.489Z,4.60
2018-01-07T05:22:12.688Z,4.78
2018-01-07T05:24:40.156Z,4.60
2018-01-07T05:27:07.586Z,5.00
2018-01-07T05:29:35.013Z,5.50
2018-01-07T05:32:02.443Z,5.12
2018-01-07T05:34:29.871Z,4.95
2018-01-07T05:36:57.307Z,5.03
2018-01-07T05:39:24.731Z,4.80
2018-01-07T05:41:52.162Z,5.10
2018-01-07T05:44:19.588Z,4.72
2018-01-07T05:46:47.010Z,4.95
2018-01-07T05:49:14.435Z,4.80
2018-01-07T05:51:41.865Z,4.93
2018-01-07T05:54:09.283Z,4.12
2018-01-07T05:56:36.717Z,4.55
2018-01-07T05:59:04.147Z,4.87
2018-01-07T06:01:31.571Z,4.32
2018-01-07T06:03:59.007Z,5.03
2018-01-07T06:06:27.182Z,4.10
2018-01-07T06:08:54.619Z,4.70
2018-01-07T06:11:22.040Z,4.20
2018-01-07T06:13:49.471Z,4.10
2018-01-07T06:16:16.943Z,3.87
2018-01-07T06:18:44.377Z,3.75
2018-01-07T06:21:11.794Z,4.12
2018-01-07T06:23:39.231Z,4.20
2018-01-07T06:26:06.651Z,3.95
2018-01-07T06:28:34.083Z,4.10
2018-01-07T06:31:01.511Z,4.25
2018-01-07T06:33:28.943Z,4.80
2018-01-07T06:35:56.363Z,4.75
2018-01-07T06:38:23.799Z,4.00
2018-01-07T06:40:51.220Z,4.40
2018-01-07T06:43:18.650Z,4.30
2018-01-07T06:45:46.068Z,4.00
2018-01-07T06:48:14.255Z,4.22
2018-01-07T06:50:41.680Z,4.60
2018-01-07T06:53:09.099Z,5.75
2018-01-07T06:55:36.534Z,3.67
2018-01-07T06:58:04.011Z,4.15
2018-01-07T07:00:31.489Z,5.37
2018-01-07T07:02:58.895Z,4.82
2018-01-07T07:05:26.315Z,3.70
2018-01-07T07:07:53.734Z,4.18
2018-01-07T07:10:21.167Z,4.37
2018-01-07T07:12:48.587Z,4.60
2018-01-07T07:15:16.023Z,3.87
2018-01-07T07:17:43.509Z,5.30
2018-01-07T07:20:10.933Z,3.87
2018-01-07T07:22:38.351Z,4.25
2018-01-07T07:25:05.787Z,3.80
2018-01-07T07:27:33.207Z,4.37
2018-01-07T07:30:00.642Z,4.12
2018-01-07T07:32:28.064Z,3.40
2018-01-07T07:34:55.491Z,3.53
2018-01-07T07:37:23.675Z,3.78
2018-01-07T07:39:51.120Z,3.60
2018-01-07T07:42:18.540Z,4.03
2018-01-07T07:44:45.962Z,4.07
2018-01-07T07:47:13.591Z,3.83
2018-01-07T07:49:41.019Z,4.53
2018-01-07T07:52:08.636Z,3.62
2018-01-07T07:54:36.055Z,3.85
2018-01-07T07:57:03.547Z,4.60
2018-01-07T07:59:30.964Z,4.35
2018-01-07T08:01:58.397Z,4.18
2018-01-07T08:04:25.814Z,4.35
2018-01-07T08:06:53.239Z,3.83
2018-01-07T08:09:20.676Z,3.40
2018-01-07T08:11:48.116Z,3.75
2018-01-07T08:14:15.535Z,3.08
2018-01-07T08:16:42.968Z,3.42
2018-01-07T08:19:10.391Z,3.07
2018-01-07T08:21:37.826Z,3.60
2018-01-07T08:24:05.248Z,4.12
2018-01-07T08:26:33.453Z,3.67
2018-01-07T08:29:00.879Z,3.20
2018-01-07T08:31:28.315Z,3.47
2018-01-07T08:33:55.735Z,3.22
2018-01-07T08:36:23.283Z,3.03
2018-01-07T08:38:50.712Z,2.90
2018-01-07T08:41:18.132Z,3.10
2018-01-07T08:43:45.563Z,3.23
2018-01-07T08:46:13.000Z,3.97
2018-01-07T08:48:40.435Z,3.10
2018-01-07T08:51:07.855Z,3.30
2018-01-07T08:53:35.283Z,4.40
2018-01-07T08:56:02.703Z,3.03
2018-01-07T08:58:30.135Z,2.83
2018-01-07T09:00:57.551Z,3.03
2018-01-07T09:03:24.988Z,3.40
2018-01-07T09:05:52.403Z,3.03
2018-01-07T09:08:19.831Z,3.17
2018-01-07T09:10:47.256Z,3.63
2018-01-07T09:13:14.692Z,3.40
2018-01-07T09:15:42.874Z,3.87
2018-01-07T09:18:10.348Z,3.50
2018-01-07T09:20:37.775Z,2.92
2018-01-07T09:23:05.206Z,5.07
2018-01-07T09:25:32.631Z,3.50
2018-01-07T09:28:00.075Z,3.00
2018-01-07T09:30:27.498Z,4.18
2018-01-07T09:32:54.940Z,3.40
2018-01-07T09:35:23.135Z,3.50
2018-01-07T09:37:50.567Z,3.12
2018-01-07T09:40:18.068Z,3.20
2018-01-07T09:42:45.484Z,3.10
2018-01-07T09:45:12.911Z,3.43
2018-01-07T09:47:40.339Z,3.00
2018-01-07T09:50:07.776Z,3.65
2018-01-07T09:52:35.195Z,3.70
2018-01-07T09:55:03.396Z,3.43
2018-01-07T09:57:30.819Z,3.00
2018-01-07T09:59:58.243Z,3.10
2018-01-07T10:02:25.680Z,4.70
2018-01-07T10:04:53.159Z,2.70
2018-01-07T10:07:20.600Z,3.07
2018-01-07T10:09:48.032Z,3.00
2018-01-07T10:12:15.451Z,3.87
2018-01-07T10:14:42.884Z,3.43
2018-01-07T10:17:10.476Z,4.63
2018-01-07T10:19:37.899Z,3.20
2018-01-07T10:22:05.335Z,3.30
2018-01-07T10:24:32.756Z,3.10
2018-01-07T10:27:01.314Z,3.07
2018-01-07T10:29:28.724Z,3.97
2018-01-07T10:31:56.156Z,3.30
2018-01-07T10:34:23.575Z,3.30
2018-01-07T10:36:51.047Z,2.93
2018-01-07T10:39:18.458Z,3.60
2018-01-07T10:41:45.888Z,3.80
2018-01-07T10:44:13.308Z,3.97
2018-01-07T10:46:41.506Z,3.60
2018-01-07T10:49:08.922Z,3.80
2018-01-07T10:51:36.347Z,2.80
2018-01-07T10:54:03.766Z,4.37
2018-01-07T10:56:31.194Z,3.23
2018-01-07T10:58:58.631Z,3.40
2018-01-07T11:01:31.747Z,2.92
2018-01-07T11:03:59.931Z,4.40
2018-01-07T11:06:27.360Z,3.73
2018-01-07T11:08:55.147Z,3.50
2018-01-07T11:11:22.571Z,2.93
2018-01-07T11:13:49.992Z,3.50
2018-01-07T11:16:17.407Z,2.97
2018-01-07T11:18:44.835Z,2.83
2018-01-07T11:21:12.265Z,2.40
2018-01-07T11:23:39.691Z,2.60
2018-01-07T11:26:07.875Z,4.23
2018-01-07T11:28:35.307Z,3.23
2018-01-07T11:31:02.723Z,2.80
2018-01-07T11:33:30.156Z,2.70
2018-01-07T11:35:57.567Z,2.97
2018-01-07T11:38:24.995Z,3.60
2018-01-07T11:40:52.417Z,2.70
2018-01-07T11:43:20.057Z,2.40
2018-01-07T11:45:47.471Z,2.27
2018-01-07T11:48:14.907Z,2.33
2018-01-07T11:50:42.331Z,2.27
2018-01-07T11:53:09.748Z,3.17
2018-01-07T11:55:37.228Z,3.03
2018-01-07T11:58:04.596Z,2.53
2018-01-07T12:00:32.167Z,2.50
2018-01-07T12:02:59.583Z,2.73
2018-01-07T12:05:27.006Z,2.37
2018-01-07T12:07:54.652Z,2.00
2018-01-07T12:10:22.115Z,2.20
2018-01-07T12:12:49.536Z,1.90
2018-01-07T12:15:16.967Z,2.20
2018-01-07T12:17:44.421Z,2.60
2018-01-07T12:20:12.761Z,2.10
2018-01-07T12:22:40.191Z,2.07
2018-01-07T12:25:07.707Z,1.97
2018-01-07T12:27:35.135Z,2.13
2018-01-07T12:30:02.554Z,2.20
2018-01-07T12:32:29.979Z,1.80
2018-01-07T12:34:57.404Z,2.60
2018-01-07T12:37:24.835Z,2.27
2018-01-07T12:39:52.256Z,2.70
2018-01-07T12:42:19.683Z,2.20
2018-01-07T12:44:47.104Z,2.10
2018-01-07T12:47:14.531Z,2.00
2018-01-07T12:49:41.955Z,2.53
2018-01-07T12:52:09.383Z,2.00
2018-01-07T12:54:36.807Z,2.13
2018-01-07T12:57:04.248Z,1.77
2018-01-07T12:59:32.439Z,1.77
2018-01-07T13:02:00.135Z,1.97
2018-01-07T13:04:27.571Z,1.77
2018-01-07T13:06:55.144Z,2.30
2018-01-07T13:09:22.572Z,2.33
2018-01-07T13:11:49.987Z,2.10
2018-01-07T13:14:18.184Z,2.03
2018-01-07T13:16:45.608Z,2.20
2018-01-07T13:19:13.039Z,2.23
2018-01-07T13:21:40.458Z,1.90
2018-01-07T13:24:07.883Z,3.00
2018-01-07T13:26:35.343Z,3.50
2018-01-07T13:29:02.775Z,2.50
2018-01-07T13:31:30.196Z,2.37
2018-01-07T13:33:57.622Z,2.53
2018-01-07T13:36:25.039Z,1.80
2018-01-07T13:38:52.472Z,1.80
2018-01-07T13:41:19.887Z,2.20
2018-01-07T13:43:47.320Z,2.30
2018-01-07T13:46:14.751Z,2.00
2018-01-07T13:48:42.184Z,2.07
2018-01-07T13:51:09.600Z,2.10
2018-01-07T13:53:37.808Z,2.20
2018-01-07T13:56:05.235Z,2.60
2018-01-07T13:58:32.683Z,2.07
2018-01-07T14:01:00.111Z,2.23
2018-01-07T14:03:27.524Z,2.47
2018-01-07T14:05:54.955Z,1.93
2018-01-07T14:08:22.371Z,1.83
2018-01-07T14:10:49.824Z,2.58
2018-01-07T14:13:17.247Z,3.10
2018-01-07T14:15:45.444Z,2.97
2018-01-07T14:18:12.862Z,2.27
2018-01-07T14:20:40.309Z,2.27
2018-01-07T14:23:07.707Z,4.47
2018-01-07T14:25:35.152Z,2.37
2018-01-07T14:28:02.576Z,2.10
2018-01-07T14:30:30.008Z,2.13
2018-01-07T14:32:57.480Z,2.20
2018-01-07T14:35:24.896Z,2.67
2018-01-07T14:37:52.313Z,2.90
2018-01-07T14:40:19.895Z,2.03
2018-01-07T14:42:47.311Z,2.43
2018-01-07T14:45:14.749Z,2.73
2018-01-07T14:47:42.159Z,2.60
2018-01-07T14:50:09.595Z,2.60
2018-01-07T14:52:37.020Z,2.37
2018-01-07T14:55:04.434Z,2.57
2018-01-07T14:57:31.875Z,2.93
2018-01-07T14:59:59.287Z,2.77
2018-01-07T15:02:26.711Z,2.60
2018-01-07T15:04:54.139Z,2.30
2018-01-07T15:07:21.684Z,2.30
2018-01-07T15:09:49.103Z,2.13
2018-01-07T15:12:16.544Z,2.07
2018-01-07T15:14:43.971Z,2.50
2018-01-07T15:17:11.598Z,2.67
2018-01-07T15:19:39.015Z,2.60
2018-01-07T15:22:06.438Z,2.60
2018-01-07T15:24:33.867Z,2.70
2018-01-07T15:27:01.296Z,2.30
2018-01-07T15:29:28.719Z,2.13
2018-01-07T15:31:56.153Z,2.55
2018-01-07T15:34:24.335Z,2.80
2018-01-07T15:36:51.775Z,3.07
2018-01-07T15:39:19.192Z,2.60
2018-01-07T15:41:46.611Z,3.17
2018-01-07T15:44:14.035Z,3.10
2018-01-07T15:46:42.499Z,3.20
2018-01-07T15:49:10.024Z,2.42
2018-01-07T15:51:37.443Z,2.70
2018-01-07T15:54:04.878Z,2.10
2018-01-07T15:56:32.294Z,3.87
2018-01-07T15:58:59.723Z,2.70
2018-01-07T16:01:27.147Z,2.70
2018-01-07T16:03:55.348Z,3.10
2018-01-07T16:06:22.775Z,3.15
2018-01-07T16:08:50.248Z,3.70
2018-01-07T16:11:17.675Z,3.58
2018-01-07T16:13:45.095Z,3.70
2018-01-07T16:16:12.526Z,3.50
2018-01-07T16:18:39.947Z,2.80
2018-01-07T16:21:07.376Z,3.00
2018-01-07T16:23:34.802Z,3.33
2018-01-07T16:26:02.245Z,3.20
2018-01-07T16:28:29.655Z,3.43
2018-01-07T16:30:57.095Z,3.08
2018-01-07T16:33:24.515Z,4.00
2018-01-07T16:35:52.004Z,3.37
2018-01-07T16:38:19.402Z,3.67
2018-01-07T16:40:46.835Z,3.40
2018-01-07T16:43:15.024Z,3.90
2018-01-07T16:45:42.483Z,3.00
2018-01-07T16:48:09.915Z,3.40
2018-01-07T16:50:37.344Z,3.60
2018-01-07T16:53:04.772Z,5.27
2018-01-07T16:55:32.204Z,3.87
2018-01-07T16:57:59.720Z,3.30
2018-01-07T17:00:27.222Z,3.85
2018-01-07T17:02:54.610Z,4.00
2018-01-07T17:05:22.038Z,3.60
2018-01-07T17:07:49.544Z,4.00
2018-01-07T17:10:16.963Z,3.45
2018-01-07T17:12:44.395Z,4.10
2018-01-07T17:15:11.811Z,4.10
2018-01-07T17:17:39.248Z,4.10
2018-01-07T17:20:06.667Z,3.60
2018-01-07T17:22:34.862Z,3.70
2018-01-07T17:25:02.298Z,3.72
2018-01-07T17:27:29.715Z,3.33
2018-01-07T17:29:57.147Z,4.50
2018-01-07T17:32:24.571Z,3.70
2018-01-07T17:34:52.779Z,3.80
2018-01-07T17:37:20.199Z,3.60
2018-01-07T17:39:48.399Z,5.13
2018-01-07T17:42:15.824Z,4.20
2018-01-07T17:44:43.251Z,3.67
2018-01-07T17:47:10.684Z,5.80
2018-01-07T17:49:38.107Z,4.33
2018-01-07T17:52:05.523Z,4.20
2018-01-07T17:54:32.967Z,4.65
2018-01-07T17:57:00.383Z,4.77
2018-01-07T17:59:27.888Z,4.57
2018-01-07T18:01:55.318Z,3.87
2018-01-07T18:04:22.751Z,4.27
2018-01-07T18:06:50.192Z,3.70
2018-01-07T18:09:18.390Z,4.27
2018-01-07T18:11:46.107Z,4.93
2018-01-07T18:14:13.551Z,4.03
2018-01-07T18:16:41.055Z,3.80
2018-01-07T18:19:08.479Z,3.77
2018-01-07T18:21:35.921Z,3.72
2018-01-07T18:24:03.351Z,3.60
2018-01-07T18:26:30.792Z,4.18
2018-01-07T18:28:58.499Z,4.05
2018-01-07T18:31:25.916Z,4.20
2018-01-07T18:33:53.344Z,3.30
2018-01-07T18:36:20.780Z,3.55
2018-01-07T18:38:48.215Z,3.85
2018-01-07T18:41:15.644Z,3.92
2018-01-07T18:43:43.436Z,3.78
2018-01-07T18:46:11.328Z,4.05
2018-01-07T18:48:39.532Z,4.00
2018-01-07T18:51:06.951Z,4.93
2018-01-07T18:53:34.392Z,5.47
2018-01-07T18:56:01.922Z,5.03
2018-01-07T18:58:29.351Z,4.40
2018-01-07T19:00:56.776Z,5.47
2018-01-07T19:03:24.210Z,5.00
2018-01-07T19:05:51.634Z,4.87
2018-01-07T19:08:19.069Z,4.43
2018-01-07T19:10:46.484Z,4.80
2018-01-07T19:13:13.910Z,5.97
2018-01-07T19:15:41.336Z,4.83
2018-01-07T19:18:08.780Z,4.87
2018-01-07T19:20:36.199Z,4.80
2018-01-07T19:23:03.987Z,6.00
2018-01-07T19:25:31.392Z,4.80
2018-01-07T19:27:58.828Z,5.22
2018-01-07T19:30:26.255Z,5.43
2018-01-07T19:32:53.679Z,5.30
2018-01-07T19:35:21.115Z,4.87
2018-01-07T19:37:48.535Z,5.23
2018-01-07T19:40:16.039Z,5.47
2018-01-07T19:42:43.476Z,5.05
2018-01-07T19:45:10.947Z,5.40
2018-01-07T19:47:38.375Z,5.85
2018-01-07T19:50:05.807Z,5.75
2018-01-07T19:52:34.000Z,5.18
2018-01-07T19:55:01.432Z,5.15
2018-01-07T19:57:28.852Z,6.10
2018-01-07T19:59:56.291Z,5.57
2018-01-07T20:02:23.855Z,6.20
2018-01-07T20:04:51.291Z,5.68
2018-01-07T20:07:18.715Z,6.07
2018-01-07T20:09:46.147Z,6.57
2018-01-07T20:12:13.589Z,5.80
2018-01-07T20:14:41.133Z,6.43
2018-01-07T20:17:08.563Z,6.25
2018-01-07T20:19:35.995Z,6.03
2018-01-07T20:22:03.426Z,6.22
2018-01-07T20:24:31.615Z,5.80
2018-01-07T20:26:59.048Z,5.82
2018-01-07T20:29:26.476Z,6.55
2018-01-07T20:31:53.912Z,5.80
2018-01-07T20:34:21.335Z,5.85
2018-01-07T20:36:48.766Z,6.55
2018-01-07T20:39:16.196Z,6.15
2018-01-07T20:41:43.626Z,6.60
2018-01-07T20:44:11.050Z,6.80
2018-01-07T20:46:38.488Z,5.35
2018-01-07T20:49:06.035Z,5.72
2018-01-07T20:51:33.475Z,6.32
2018-01-07T20:54:00.891Z,7.00
2018-01-07T20:56:29.092Z,6.95
2018-01-07T20:58:56.547Z,6.25
2018-01-07T21:01:24.355Z,6.53
2018-01-07T21:03:51.924Z,6.80
2018-01-07T21:06:19.367Z,7.80
2018-01-07T21:08:46.795Z,6.53
2018-01-07T21:11:14.216Z,5.90
2018-01-07T21:13:41.703Z,6.40
2018-01-07T21:16:09.163Z,7.37
2018-01-07T21:18:37.755Z,6.62
2018-01-07T21:21:05.179Z,7.25
2018-01-07T21:23:32.611Z,6.80
2018-01-07T21:26:00.037Z,5.80
2018-01-07T21:28:27.477Z,5.97
2018-01-07T21:30:54.898Z,7.10
2018-01-07T21:33:22.495Z,6.18
2018-01-07T21:35:49.918Z,6.70
2018-01-07T21:38:17.335Z,6.00
2018-01-07T21:40:44.777Z,8.57
2018-01-07T21:43:12.192Z,7.68
2018-01-07T21:45:39.623Z,7.20
2018-01-07T21:48:07.813Z,5.60
2018-01-07T21:50:35.243Z,7.80
2018-01-07T21:53:02.659Z,7.87
2018-01-07T21:55:30.094Z,6.43
2018-01-07T21:57:57.513Z,6.30
2018-01-07T22:00:38.209Z,6.97
2018-01-07T22:03:17.363Z,6.80
2018-01-07T22:05:54.645Z,7.00
2018-01-07T22:08:22.064Z,7.55
2018-01-07T22:10:50.270Z,6.87
2018-01-07T22:13:17.699Z,7.32
2018-01-07T22:15:45.120Z,7.12
2018-01-07T22:18:13.307Z,6.82
2018-01-07T22:20:40.743Z,7.18
2018-01-07T22:23:08.191Z,8.93
2018-01-07T22:25:35.626Z,6.95
2018-01-07T22:28:03.043Z,6.87
2018-01-07T22:33:05.123Z,7.93
2018-01-07T22:35:32.555Z,7.07
2018-01-07T22:37:59.978Z,6.72
2018-01-07T22:40:27.406Z,7.78
2018-01-07T22:42:54.834Z,7.12
2018-01-07T22:45:22.260Z,7.55
2018-01-07T22:47:55.359Z,6.50
2018-01-07T22:50:22.779Z,6.97
2018-01-07T22:52:50.218Z,6.90
2018-01-07T22:55:17.642Z,8.10
2018-01-07T22:57:45.851Z,6.07
2018-01-07T23:00:13.275Z,6.60
2018-01-07T23:02:40.707Z,6.30
2018-01-07T23:05:08.136Z,6.60
2018-01-07T23:07:35.568Z,7.10
2018-01-07T23:10:03.004Z,6.18
2018-01-07T23:12:30.435Z,6.90
2018-01-07T23:14:58.627Z,6.78
2018-01-07T23:17:26.058Z,5.93
2018-01-07T23:19:53.479Z,6.75
2018-01-07T23:22:20.925Z,6.60
2018-01-07T23:24:48.342Z,7.25
2018-01-07T23:27:15.763Z,7.37
2018-01-07T23:29:43.203Z,6.05
2018-01-07T23:32:10.624Z,7.20
2018-01-07T23:34:38.826Z,6.65
2018-01-07T23:37:06.247Z,6.90
2018-01-07T23:39:33.680Z,7.65
2018-01-07T23:42:01.105Z,5.90
2018-01-07T23:44:28.539Z,6.30
2018-01-07T23:46:56.126Z,5.70
2018-01-07T23:49:23.563Z,6.25
2018-01-07T23:51:50.988Z,6.87
2018-01-07T23:54:18.418Z,5.45
2018-01-07T23:56:45.846Z,6.68
2018-01-07T23:59:13.348Z,6.37
